createdAt,value
2023-04-15T00:11:26.117Z,9.40
2023-04-15T00:17:21.762Z,9.30
2023-04-15T00:23:23.653Z,9.30
2023-04-15T00:35:04.067Z,9.30
2023-04-15T00:40:28.413Z,9.20
2023-04-15T00:46:01.913Z,9.20
2023-04-15T00:51:26.722Z,9.20
2023-04-15T01:03:08.573Z,9.00
2023-04-15T01:08:31.925Z,8.90
2023-04-15T01:14:15.802Z,8.80
2023-04-15T01:26:00.062Z,8.70
2023-04-15T01:31:28.093Z,8.60
2023-04-15T01:37:30.687Z,8.60
2023-04-15T01:42:12.599Z,8.50
2023-04-15T01:47:25.457Z,8.50
2023-04-15T01:52:38.866Z,8.50
2023-04-15T02:09:04.795Z,8.40
2023-04-15T02:14:23.457Z,8.50
2023-04-15T02:19:53.917Z,8.40
2023-04-15T02:25:24.187Z,8.40
2023-04-15T02:31:17.901Z,8.40
2023-04-15T02:36:19.015Z,8.40
2023-04-15T02:41:34.093Z,8.40
2023-04-15T02:46:55.583Z,8.50
2023-04-15T02:52:22.016Z,8.40
2023-04-15T02:57:46.687Z,8.40
2023-04-15T03:03:02.339Z,8.40
2023-04-15T03:08:16.191Z,8.40
2023-04-15T03:13:32.369Z,8.40
2023-04-15T03:18:53.858Z,8.40
2023-04-15T03:24:01.524Z,8.40
2023-04-15T03:29:13.045Z,8.30
2023-04-15T03:34:31.637Z,8.30
2023-04-15T03:39:40.795Z,8.20
2023-04-15T03:44:58.968Z,8.20
2023-04-15T03:50:08.056Z,8.20
2023-04-15T03:55:29.880Z,8.20
2023-04-15T04:01:12.311Z,8.10
2023-04-15T04:06:43.538Z,8.10
2023-04-15T04:12:06.882Z,8.10
2023-04-15T04:23:02.037Z,8.00
2023-04-15T04:33:52.532Z,7.70
2023-04-15T04:39:11.140Z,7.60
2023-04-15T04:45:56.046Z,7.40
2023-04-15T04:49:50.112Z,7.40
2023-04-15T05:00:40.670Z,7.20
2023-04-15T05:05:57.874Z,7.20
2023-04-15T05:11:02.199Z,7.20
2023-04-15T05:16:06.575Z,7.20
2023-04-15T05:21:08.410Z,7.20
2023-04-15T05:26:10.221Z,7.10
2023-04-15T05:31:12.222Z,7.10
2023-04-15T05:36:14.035Z,7.10
2023-04-15T05:41:19.077Z,7.10
2023-04-15T05:46:21.974Z,7.10
2023-04-15T05:51:23.755Z,7.10
2023-04-15T05:56:27.133Z,7.10
2023-04-15T06:01:29.005Z,7.10
2023-04-15T06:06:30.868Z,7.20
2023-04-15T06:11:32.693Z,7.20
2023-04-15T06:16:36.636Z,7.30
2023-04-15T06:21:38.613Z,7.40
2023-04-15T06:26:40.609Z,7.50
2023-04-15T06:31:42.514Z,7.60
2023-04-15T06:36:44.438Z,7.70
2023-04-15T06:41:46.715Z,7.80
2023-04-15T06:46:48.502Z,7.90
2023-04-15T06:51:51.453Z,8.00
2023-04-15T06:56:53.353Z,8.10
2023-04-15T07:01:55.227Z,8.20
2023-04-15T07:06:57.399Z,8.30
2023-04-15T07:11:59.238Z,8.50
2023-04-15T07:17:01.474Z,8.60
2023-04-15T07:22:03.883Z,8.70
2023-04-15T07:27:05.763Z,8.90
2023-04-15T07:32:07.805Z,9.00
2023-04-15T07:37:09.643Z,9.10
2023-04-15T07:42:11.466Z,9.30
2023-04-15T07:47:13.465Z,9.50
2023-04-15T07:52:15.897Z,9.60
2023-04-15T07:57:17.912Z,9.80
2023-04-15T08:02:20.035Z,9.90
2023-04-15T08:07:22.268Z,10.00
2023-04-15T08:12:24.372Z,10.20
2023-04-15T08:17:26.335Z,10.30
2023-04-15T08:22:28.686Z,10.50
2023-04-15T08:27:30.525Z,10.60
2023-04-15T08:32:32.527Z,10.80
2023-04-15T08:37:34.413Z,10.80
2023-04-15T08:42:38.100Z,10.90
2023-04-15T08:47:40.754Z,11.00
2023-04-15T08:52:42.778Z,11.10
2023-04-15T08:57:44.943Z,11.20
2023-04-15T09:02:46.952Z,11.40
2023-04-15T09:07:51.001Z,11.40
2023-04-15T09:12:53.167Z,11.50
2023-04-15T09:17:55.415Z,11.60
2023-04-15T09:22:57.276Z,11.70
2023-04-15T09:28:01.171Z,11.80
2023-04-15T09:33:11.103Z,12.00
2023-04-15T09:38:13.434Z,12.10
2023-04-15T09:43:16.895Z,12.20
2023-04-15T09:48:21.566Z,12.20
2023-04-15T09:53:24.958Z,12.30
2023-04-15T09:58:27.640Z,12.40
2023-04-15T10:03:31.998Z,12.60
2023-04-15T10:08:35.026Z,12.80
2023-04-15T10:13:38.164Z,12.90
2023-04-15T10:18:45.741Z,12.90
2023-04-15T10:23:47.877Z,13.00
2023-04-15T10:28:50.231Z,13.20
2023-04-15T10:33:52.810Z,13.40
2023-04-15T10:38:54.741Z,13.50
2023-04-15T10:44:04.349Z,13.70
2023-04-15T10:49:17.982Z,14.10
2023-04-15T10:54:25.979Z,14.00
2023-04-15T10:59:38.905Z,14.00
2023-04-15T11:04:57.895Z,14.00
2023-04-15T11:10:00.071Z,14.20
2023-04-15T11:15:25.285Z,14.60
2023-04-15T11:20:30.622Z,15.00
2023-04-15T11:25:35.231Z,15.00
2023-04-15T11:30:39.433Z,15.00
2023-04-15T11:35:42.510Z,15.10
2023-04-15T11:40:47.424Z,15.40
2023-04-15T11:45:58.294Z,15.40
2023-04-15T11:51:02.259Z,15.60
2023-04-15T11:56:04.252Z,15.80
2023-04-15T12:01:07.242Z,16.10
2023-04-15T12:06:36.796Z,16.60
2023-04-15T12:11:41.023Z,16.50
2023-04-15T12:16:48.703Z,16.00
2023-04-15T12:21:53.482Z,16.00
2023-04-15T12:26:59.692Z,16.10
2023-04-15T12:32:11.697Z,16.10
2023-04-15T12:37:14.445Z,16.70
2023-04-15T12:42:17.504Z,16.80
2023-04-15T12:47:19.386Z,17.00
2023-04-15T12:52:21.201Z,16.70
2023-04-15T12:57:22.970Z,16.80
2023-04-15T13:02:25.813Z,17.10
2023-04-15T13:07:27.742Z,16.40
2023-04-15T13:12:31.094Z,15.90
2023-04-15T13:17:32.930Z,15.90
2023-04-15T13:22:34.774Z,15.80
2023-04-15T13:27:36.940Z,16.10
2023-04-15T13:32:38.777Z,16.00
2023-04-15T13:37:41.221Z,16.20
2023-04-15T13:42:43.191Z,16.30
2023-04-15T13:47:45.379Z,16.30
2023-04-15T13:52:47.200Z,16.00
2023-04-15T13:57:50.464Z,15.40
2023-04-15T14:02:52.523Z,15.10
2023-04-15T14:07:54.424Z,14.90
2023-04-15T14:12:56.360Z,14.60
2023-04-15T14:17:58.288Z,14.10
2023-04-15T14:23:00.913Z,13.80
2023-04-15T14:28:03.586Z,13.70
2023-04-15T14:33:05.498Z,13.90
2023-04-15T14:38:10.775Z,13.90
2023-04-15T14:43:13.134Z,14.60
2023-04-15T14:48:14.963Z,15.00
2023-04-15T14:53:16.809Z,15.30
2023-04-15T14:58:18.597Z,15.70
2023-04-15T15:03:20.670Z,16.20
2023-04-15T15:08:22.725Z,16.70
2023-04-15T15:13:25.377Z,16.50
2023-04-15T15:18:27.263Z,16.00
2023-04-15T15:23:29.111Z,16.20
2023-04-15T15:28:31.032Z,16.60
2023-04-15T15:33:32.915Z,16.70
2023-04-15T15:38:34.758Z,16.20
2023-04-15T15:43:36.983Z,15.90
2023-04-15T15:48:38.839Z,15.50
2023-04-15T15:53:40.676Z,14.70
2023-04-15T15:58:45.060Z,14.70
2023-04-15T16:03:46.921Z,14.70
2023-04-15T16:08:48.841Z,15.00
2023-04-15T16:13:51.183Z,15.00
2023-04-15T16:18:52.976Z,14.50
2023-04-15T16:23:54.773Z,14.50
2023-04-15T16:28:56.540Z,14.30
2023-04-15T16:33:58.365Z,13.70
2023-04-15T16:39:00.485Z,13.10
2023-04-15T16:44:03.315Z,12.70
2023-04-15T16:49:05.548Z,12.50
2023-04-15T16:54:08.419Z,12.30
2023-04-15T16:59:10.388Z,12.00
2023-04-15T17:04:14.853Z,11.80
2023-04-15T17:09:16.860Z,11.40
2023-04-15T17:14:18.793Z,11.30
2023-04-15T17:19:20.756Z,11.30
2023-04-15T17:24:22.686Z,11.40
2023-04-15T17:29:25.179Z,11.30
2023-04-15T17:34:28.660Z,11.10
2023-04-15T17:39:50.483Z,11.00
2023-04-15T17:44:52.329Z,10.90
2023-04-15T17:49:54.260Z,10.70
2023-04-15T17:54:56.101Z,10.70
2023-04-15T17:59:57.903Z,10.50
2023-04-15T18:04:59.815Z,10.50
2023-04-15T18:10:01.848Z,10.40
2023-04-15T18:15:04.593Z,10.40
2023-04-15T18:20:08.319Z,10.30
2023-04-15T18:25:10.502Z,10.30
2023-04-15T18:30:13.157Z,10.20
2023-04-15T18:35:19.424Z,10.20
2023-04-15T18:40:21.352Z,10.20
2023-04-15T18:45:23.185Z,10.10
2023-04-15T18:50:25.051Z,10.00
2023-04-15T18:55:32.982Z,9.90
2023-04-15T19:00:56.684Z,9.90
2023-04-15T19:12:26.870Z,9.70
2023-04-15T19:19:12.483Z,9.60
2023-04-15T19:30:01.323Z,9.50
2023-04-15T19:35:57.983Z,9.40
2023-04-15T20:05:59.467Z,9.30
2023-04-15T20:12:49.679Z,9.40
2023-04-15T20:23:13.608Z,9.30
2023-04-15T20:29:06.686Z,9.30
2023-04-15T20:40:59.463Z,9.20
2023-04-15T20:53:03.057Z,9.00
2023-04-15T21:05:38.637Z,8.90
2023-04-15T21:10:14.686Z,8.80
2023-04-15T21:22:32.605Z,8.80
2023-04-15T21:28:42.802Z,8.70
2023-04-15T21:34:06.874Z,8.70
2023-04-15T21:39:38.387Z,8.80
2023-04-15T21:46:36.054Z,8.70
2023-04-15T21:50:50.206Z,8.70
2023-04-15T22:01:49.779Z,8.60
2023-04-15T22:13:01.552Z,8.60
2023-04-15T22:19:08.453Z,8.60
2023-04-15T22:29:42.222Z,8.50
2023-04-15T22:35:28.768Z,8.50
2023-04-15T22:52:53.077Z,8.40
2023-04-15T22:58:33.289Z,8.40
2023-04-15T23:03:57.164Z,8.40
2023-04-15T23:10:06.706Z,8.40
2023-04-15T23:15:27.174Z,8.30
2023-04-15T23:26:12.889Z,8.30
2023-04-15T23:31:25.349Z,8.20
2023-04-15T23:42:40.783Z,8.20
2023-04-15T23:53:36.719Z,8.00
2023-04-15T23:59:11.009Z,7.90
